sensor_id;sensor_type;location;lat;lon;timestamp;pressure;altitude;pressure_sealevel;temperature;humidity
35419;BME280;21525;41.240;16.500;2023-11-19T00:00:11;102016.53;;;17.22;61.85
35419;BME280;21525;41.240;16.500;2023-11-19T00:02:38;102021.72;;;17.27;61.81
35419;BME280;21525;41.240;16.500;2023-11-19T00:05:05;102021.44;;;17.40;60.42
35419;BME280;21525;41.240;16.500;2023-11-19T00:07:38;102030.44;;;16.84;61.58
35419;BME280;21525;41.240;16.500;2023-11-19T00:10:13;102025.97;;;17.34;60.42
35419;BME280;21525;41.240;16.500;2023-11-19T00:12:42;102033.75;;;16.94;61.64
35419;BME280;21525;41.240;16.500;2023-11-19T00:15:08;102020.84;;;16.82;61.07
35419;BME280;21525;41.240;16.500;2023-11-19T00:17:37;102030.69;;;16.69;61.82
35419;BME280;21525;41.240;16.500;2023-11-19T00:20:05;102018.53;;;17.11;60.85
35419;BME280;21525;41.240;16.500;2023-11-19T00:22:31;102028.75;;;16.82;60.88
35419;BME280;21525;41.240;16.500;2023-11-19T00:24:57;102029.78;;;16.71;60.40
35419;BME280;21525;41.240;16.500;2023-11-19T00:27:23;102023.69;;;16.69;60.66
35419;BME280;21525;41.240;16.500;2023-11-19T00:29:48;102033.66;;;16.49;61.55
35419;BME280;21525;41.240;16.500;2023-11-19T00:32:14;102036.19;;;16.55;61.10
35419;BME280;21525;41.240;16.500;2023-11-19T00:34:43;102034.13;;;16.74;60.00
35419;BME280;21525;41.240;16.500;2023-11-19T00:37:08;102030.31;;;16.39;61.04
35419;BME280;21525;41.240;16.500;2023-11-19T00:39:34;102020.97;;;16.23;62.02
35419;BME280;21525;41.240;16.500;2023-11-19T00:42:00;102033.28;;;16.18;61.34
35419;BME280;21525;41.240;16.500;2023-11-19T00:44:26;102041.66;;;16.92;58.80
35419;BME280;21525;41.240;16.500;2023-11-19T00:46:51;102032.97;;;16.36;60.86
35419;BME280;21525;41.240;16.500;2023-11-19T00:49:18;102041.47;;;16.52;60.43
35419;BME280;21525;41.240;16.500;2023-11-19T00:51:43;102043.72;;;16.76;60.00
35419;BME280;21525;41.240;16.500;2023-11-19T00:54:11;102039.69;;;16.54;60.15
35419;BME280;21525;41.240;16.500;2023-11-19T00:56:36;102037.06;;;16.54;59.91
35419;BME280;21525;41.240;16.500;2023-11-19T00:59:02;102039.16;;;16.86;59.60
35419;BME280;21525;41.240;16.500;2023-11-19T01:01:29;102034.47;;;16.53;60.78
35419;BME280;21525;41.240;16.500;2023-11-19T01:03:55;102035.50;;;16.42;60.49
35419;BME280;21525;41.240;16.500;2023-11-19T01:06:32;102044.47;;;16.28;61.26
35419;BME280;21525;41.240;16.500;2023-11-19T01:08:58;102031.75;;;16.57;60.29
35419;BME280;21525;41.240;16.500;2023-11-19T01:11:27;102037.31;;;16.39;60.65
35419;BME280;21525;41.240;16.500;2023-11-19T01:13:53;102040.25;;;16.74;59.12
35419;BME280;21525;41.240;16.500;2023-11-19T01:16:20;102026.63;;;17.00;58.66
35419;BME280;21525;41.240;16.500;2023-11-19T01:18:47;102029.28;;;16.48;59.98
35419;BME280;21525;41.240;16.500;2023-11-19T01:21:14;102033.78;;;16.92;59.16
35419;BME280;21525;41.240;16.500;2023-11-19T01:23:43;102024.88;;;16.99;57.98
35419;BME280;21525;41.240;16.500;2023-11-19T01:26:12;102030.81;;;16.60;58.76
35419;BME280;21525;41.240;16.500;2023-11-19T01:28:41;102027.81;;;16.30;60.58
35419;BME280;21525;41.240;16.500;2023-11-19T01:31:15;102030.31;;;16.38;60.19
35419;BME280;21525;41.240;16.500;2023-11-19T01:33:41;102013.63;;;16.42;60.05
35419;BME280;21525;41.240;16.500;2023-11-19T01:36:12;102016.50;;;16.27;60.78
35419;BME280;21525;41.240;16.500;2023-11-19T01:38:38;102025.00;;;16.93;58.50
35419;BME280;21525;41.240;16.500;2023-11-19T01:41:05;102013.91;;;16.79;58.42
35419;BME280;21525;41.240;16.500;2023-11-19T01:43:38;102012.16;;;16.78;58.37
35419;BME280;21525;41.240;16.500;2023-11-19T01:46:07;102012.25;;;16.20;59.54
35419;BME280;21525;41.240;16.500;2023-11-19T01:48:41;102017.22;;;16.36;59.95
35419;BME280;21525;41.240;16.500;2023-11-19T01:51:08;102019.44;;;16.59;59.42
35419;BME280;21525;41.240;16.500;2023-11-19T01:53:36;102015.28;;;16.97;57.47
35419;BME280;21525;41.240;16.500;2023-11-19T01:56:07;102019.31;;;16.70;57.72
35419;BME280;21525;41.240;16.500;2023-11-19T01:58:36;102018.94;;;16.39;58.54
35419;BME280;21525;41.240;16.500;2023-11-19T02:01:02;102005.94;;;16.30;59.55
35419;BME280;21525;41.240;16.500;2023-11-19T02:03:31;102012.06;;;16.83;58.44
35419;BME280;21525;41.240;16.500;2023-11-19T02:05:59;102013.97;;;16.74;57.66
35419;BME280;21525;41.240;16.500;2023-11-19T02:08:24;102015.09;;;16.06;59.69
35419;BME280;21525;41.240;16.500;2023-11-19T02:10:52;102003.59;;;16.13;59.23
35419;BME280;21525;41.240;16.500;2023-11-19T02:13:18;102004.19;;;16.83;57.39
35419;BME280;21525;41.240;16.500;2023-11-19T02:15:44;102004.38;;;16.72;56.95
35419;BME280;21525;41.240;16.500;2023-11-19T02:18:24;102002.53;;;16.25;57.89
35419;BME280;21525;41.240;16.500;2023-11-19T02:20:54;102006.53;;;16.49;57.23
35419;BME280;21525;41.240;16.500;2023-11-19T02:23:21;101993.06;;;16.68;56.09
35419;BME280;21525;41.240;16.500;2023-11-19T02:26:09;101988.16;;;16.47;56.24
35419;BME280;21525;41.240;16.500;2023-11-19T02:28:39;101992.09;;;16.22;56.34
35419;BME280;21525;41.240;16.500;2023-11-19T02:31:07;101993.56;;;16.89;54.55
35419;BME280;21525;41.240;16.500;2023-11-19T02:33:37;101994.00;;;17.10;53.44
35419;BME280;21525;41.240;16.500;2023-11-19T02:36:07;101991.41;;;16.61;54.26
35419;BME280;21525;41.240;16.500;2023-11-19T02:38:36;101987.78;;;16.70;54.11
35419;BME280;21525;41.240;16.500;2023-11-19T02:41:06;101987.63;;;16.27;54.45
35419;BME280;21525;41.240;16.500;2023-11-19T02:43:36;101988.41;;;16.32;54.67
35419;BME280;21525;41.240;16.500;2023-11-19T02:46:04;101987.47;;;16.36;54.27
35419;BME280;21525;41.240;16.500;2023-11-19T02:48:34;101989.66;;;16.60;54.23
35419;BME280;21525;41.240;16.500;2023-11-19T02:51:05;101988.97;;;15.97;55.03
35419;BME280;21525;41.240;16.500;2023-11-19T02:53:35;101993.56;;;16.38;54.11
35419;BME280;21525;41.240;16.500;2023-11-19T02:56:03;102002.28;;;16.40;54.12
35419;BME280;21525;41.240;16.500;2023-11-19T02:58:35;101999.81;;;16.31;53.80
35419;BME280;21525;41.240;16.500;2023-11-19T03:01:01;102006.44;;;15.99;53.94
35419;BME280;21525;41.240;16.500;2023-11-19T03:03:36;102001.84;;;16.13;53.83
35419;BME280;21525;41.240;16.500;2023-11-19T03:06:06;102009.97;;;15.97;53.74
35419;BME280;21525;41.240;16.500;2023-11-19T03:08:34;102000.31;;;15.99;53.79
35419;BME280;21525;41.240;16.500;2023-11-19T03:11:01;101993.72;;;16.29;52.85
35419;BME280;21525;41.240;16.500;2023-11-19T03:13:27;101993.84;;;16.23;53.12
35419;BME280;21525;41.240;16.500;2023-11-19T03:15:53;101990.47;;;16.15;52.61
35419;BME280;21525;41.240;16.500;2023-11-19T03:18:20;101992.69;;;15.84;53.64
35419;BME280;21525;41.240;16.500;2023-11-19T03:20:48;102001.59;;;16.27;52.61
35419;BME280;21525;41.240;16.500;2023-11-19T03:23:15;101988.41;;;16.32;52.30
35419;BME280;21525;41.240;16.500;2023-11-19T03:25:40;101994.88;;;16.11;52.88
35419;BME280;21525;41.240;16.500;2023-11-19T03:28:06;101986.13;;;16.61;51.43
35419;BME280;21525;41.240;16.500;2023-11-19T03:30:32;101986.16;;;16.10;52.32
35419;BME280;21525;41.240;16.500;2023-11-19T03:32:58;101980.16;;;16.55;51.16
35419;BME280;21525;41.240;16.500;2023-11-19T03:35:25;101978.88;;;16.26;51.88
35419;BME280;21525;41.240;16.500;2023-11-19T03:37:51;101987.94;;;16.08;52.59
35419;BME280;21525;41.240;16.500;2023-11-19T03:40:17;101987.94;;;16.58;51.00
35419;BME280;21525;41.240;16.500;2023-11-19T03:42:47;101994.88;;;16.65;50.71
35419;BME280;21525;41.240;16.500;2023-11-19T03:45:13;101995.81;;;16.08;51.93
35419;BME280;21525;41.240;16.500;2023-11-19T03:47:42;102006.25;;;16.65;51.08
35419;BME280;21525;41.240;16.500;2023-11-19T03:50:08;102011.06;;;16.39;51.06
35419;BME280;21525;41.240;16.500;2023-11-19T03:52:35;102013.44;;;15.99;51.77
35419;BME280;21525;41.240;16.500;2023-11-19T03:55:01;102013.75;;;16.34;51.19
35419;BME280;21525;41.240;16.500;2023-11-19T03:57:27;102013.44;;;15.99;51.47
35419;BME280;21525;41.240;16.500;2023-11-19T03:59:53;102004.75;;;15.95;51.80
35419;BME280;21525;41.240;16.500;2023-11-19T04:02:21;101992.97;;;16.22;51.19
35419;BME280;21525;41.240;16.500;2023-11-19T04:04:46;101990.63;;;16.04;51.63
35419;BME280;21525;41.240;16.500;2023-11-19T04:07:13;101983.94;;;15.85;52.13
35419;BME280;21525;41.240;16.500;2023-11-19T04:09:39;101981.34;;;15.82;51.72
35419;BME280;21525;41.240;16.500;2023-11-19T04:12:05;101978.22;;;16.13;51.04
35419;BME280;21525;41.240;16.500;2023-11-19T04:14:32;101972.41;;;16.47;50.15
35419;BME280;21525;41.240;16.500;2023-11-19T04:16:57;101972.53;;;16.39;49.69
35419;BME280;21525;41.240;16.500;2023-11-19T04:19:23;101968.66;;;16.60;49.43
35419;BME280;21525;41.240;16.500;2023-11-19T04:21:50;101960.63;;;16.71;49.18
35419;BME280;21525;41.240;16.500;2023-11-19T04:24:15;101966.38;;;15.88;50.95
35419;BME280;21525;41.240;16.500;2023-11-19T04:26:41;101965.19;;;16.58;49.96
35419;BME280;21525;41.240;16.500;2023-11-19T04:29:13;101961.78;;;16.02;50.13
35419;BME280;21525;41.240;16.500;2023-11-19T04:31:41;101959.25;;;15.96;50.26
35419;BME280;21525;41.240;16.500;2023-11-19T04:34:07;101956.63;;;15.96;50.28
35419;BME280;21525;41.240;16.500;2023-11-19T04:36:33;101971.53;;;15.93;50.76
35419;BME280;21525;41.240;16.500;2023-11-19T04:39:00;101961.19;;;15.85;50.81
35419;BME280;21525;41.240;16.500;2023-11-19T04:41:26;101965.84;;;16.22;50.26
35419;BME280;21525;41.240;16.500;2023-11-19T04:43:55;101952.94;;;16.57;49.10
35419;BME280;21525;41.240;16.500;2023-11-19T04:46:21;101948.63;;;16.04;50.02
35419;BME280;21525;41.240;16.500;2023-11-19T04:48:49;101947.22;;;15.83;50.50
35419;BME280;21525;41.240;16.500;2023-11-19T04:51:15;101957.81;;;15.77;50.62
35419;BME280;21525;41.240;16.500;2023-11-19T04:53:41;101949.75;;;16.40;49.46
35419;BME280;21525;41.240;16.500;2023-11-19T04:56:10;101948.88;;;16.41;49.37
35419;BME280;21525;41.240;16.500;2023-11-19T04:58:36;101953.13;;;16.48;48.74
35419;BME280;21525;41.240;16.500;2023-11-19T05:01:05;101953.00;;;16.03;49.58
35419;BME280;21525;41.240;16.500;2023-11-19T05:03:31;101954.84;;;15.98;49.96
35419;BME280;21525;41.240;16.500;2023-11-19T05:05:57;101954.66;;;16.10;49.08
35419;BME280;21525;41.240;16.500;2023-11-19T05:08:23;101953.03;;;16.02;49.20
35419;BME280;21525;41.240;16.500;2023-11-19T05:10:49;101957.66;;;15.86;49.41
35419;BME280;21525;41.240;16.500;2023-11-19T05:13:15;101947.81;;;15.99;49.31
35419;BME280;21525;41.240;16.500;2023-11-19T05:15:42;101958.19;;;16.08;48.88
35419;BME280;21525;41.240;16.500;2023-11-19T05:18:08;101957.47;;;15.97;48.95
35419;BME280;21525;41.240;16.500;2023-11-19T05:20:34;101955.41;;;16.19;48.42
35419;BME280;21525;41.240;16.500;2023-11-19T05:23:00;101956.25;;;16.21;48.82
35419;BME280;21525;41.240;16.500;2023-11-19T05:25:26;101953.63;;;16.21;48.57
35419;BME280;21525;41.240;16.500;2023-11-19T05:27:53;101949.72;;;15.91;49.11
35419;BME280;21525;41.240;16.500;2023-11-19T05:30:19;101959.91;;;16.10;48.84
35419;BME280;21525;41.240;16.500;2023-11-19T05:32:45;101966.19;;;16.00;49.12
35419;BME280;21525;41.240;16.500;2023-11-19T05:35:12;101976.13;;;15.78;49.66
35419;BME280;21525;41.240;16.500;2023-11-19T05:37:38;101972.97;;;16.13;48.88
35419;BME280;21525;41.240;16.500;2023-11-19T05:40:05;101965.81;;;15.66;49.47
35419;BME280;21525;41.240;16.500;2023-11-19T05:42:37;101982.72;;;16.05;48.91
35419;BME280;21525;41.240;16.500;2023-11-19T05:45:03;101980.75;;;16.20;49.02
35419;BME280;21525;41.240;16.500;2023-11-19T05:47:29;101973.97;;;16.05;49.52
35419;BME280;21525;41.240;16.500;2023-11-19T05:49:55;101974.47;;;16.27;49.30
35419;BME280;21525;41.240;16.500;2023-11-19T05:52:21;101972.88;;;16.20;48.76
35419;BME280;21525;41.240;16.500;2023-11-19T05:54:48;101972.63;;;16.33;48.61
35419;BME280;21525;41.240;16.500;2023-11-19T05:57:17;101964.97;;;16.21;49.05
35419;BME280;21525;41.240;16.500;2023-11-19T05:59:48;101959.25;;;15.96;49.13
35419;BME280;21525;41.240;16.500;2023-11-19T06:02:14;101965.09;;;16.13;48.91
35419;BME280;21525;41.240;16.500;2023-11-19T06:04:39;101960.72;;;16.14;48.89
35419;BME280;21525;41.240;16.500;2023-11-19T06:07:05;101961.34;;;16.28;48.45
35419;BME280;21525;41.240;16.500;2023-11-19T06:09:31;101961.00;;;15.94;49.13
35419;BME280;21525;41.240;16.500;2023-11-19T06:11:59;101955.41;;;16.19;48.33
35419;BME280;21525;41.240;16.500;2023-11-19T06:14:27;101950.03;;;16.75;47.79
35419;BME280;21525;41.240;16.500;2023-11-19T06:16:53;101951.88;;;18.28;44.35
35419;BME280;21525;41.240;16.500;2023-11-19T06:19:19;101941.75;;;20.48;40.78
35419;BME280;21525;41.240;16.500;2023-11-19T06:21:45;101939.47;;;21.35;39.51
35419;BME280;21525;41.240;16.500;2023-11-19T06:24:10;101935.25;;;20.58;39.33
35419;BME280;21525;41.240;16.500;2023-11-19T06:26:36;101937.72;;;21.34;38.11
35419;BME280;21525;41.240;16.500;2023-11-19T06:29:02;101941.56;;;22.15;37.57
35419;BME280;21525;41.240;16.500;2023-11-19T06:31:28;101928.78;;;23.79;35.54
35419;BME280;21525;41.240;16.500;2023-11-19T06:33:54;101933.41;;;23.38;35.25
35419;BME280;21525;41.240;16.500;2023-11-19T06:36:19;101938.63;;;23.02;35.33
35419;BME280;21525;41.240;16.500;2023-11-19T06:38:45;101936.94;;;23.38;35.58
35419;BME280;21525;41.240;16.500;2023-11-19T06:41:11;101937.16;;;22.35;36.68
35419;BME280;21525;41.240;16.500;2023-11-19T06:43:37;101922.34;;;23.28;35.07
35419;BME280;21525;41.240;16.500;2023-11-19T06:46:03;101922.50;;;23.63;35.15
35419;BME280;21525;41.240;16.500;2023-11-19T06:48:34;101921.88;;;23.75;34.01
35419;BME280;21525;41.240;16.500;2023-11-19T06:51:00;101924.63;;;24.27;33.49
35419;BME280;21525;41.240;16.500;2023-11-19T06:53:26;101916.19;;;24.36;32.95
35419;BME280;21525;41.240;16.500;2023-11-19T06:55:54;101908.22;;;25.02;32.60
35419;BME280;21525;41.240;16.500;2023-11-19T06:58:20;101908.56;;;25.11;31.86
35419;BME280;21525;41.240;16.500;2023-11-19T07:00:45;101901.97;;;25.50;31.85
35419;BME280;21525;41.240;16.500;2023-11-19T07:03:12;101913.59;;;25.65;31.63
35419;BME280;21525;41.240;16.500;2023-11-19T07:05:38;101910.53;;;26.17;31.16
35419;BME280;21525;41.240;16.500;2023-11-19T07:08:05;101905.41;;;26.86;30.11
35419;BME280;21525;41.240;16.500;2023-11-19T07:10:32;101893.38;;;27.07;29.94
35419;BME280;21525;41.240;16.500;2023-11-19T07:12:59;101885.31;;;27.90;28.82
35419;BME280;21525;41.240;16.500;2023-11-19T07:15:25;101878.72;;;27.68;29.65
35419;BME280;21525;41.240;16.500;2023-11-19T07:17:51;101875.50;;;27.63;29.00
35419;BME280;21525;41.240;16.500;2023-11-19T07:20:20;101879.72;;;28.32;28.37
35419;BME280;21525;41.240;16.500;2023-11-19T07:22:45;101881.31;;;28.73;27.90
35419;BME280;21525;41.240;16.500;2023-11-19T07:25:14;101886.22;;;28.79;28.06
35419;BME280;21525;41.240;16.500;2023-11-19T07:27:40;101884.03;;;29.22;27.62
35419;BME280;21525;41.240;16.500;2023-11-19T07:30:06;101889.88;;;29.27;27.52
35419;BME280;21525;41.240;16.500;2023-11-19T07:32:35;101892.78;;;28.62;27.97
35419;BME280;21525;41.240;16.500;2023-11-19T07:35:01;101890.63;;;28.67;27.92
35419;BME280;21525;41.240;16.500;2023-11-19T07:37:27;101896.91;;;29.17;27.48
35419;BME280;21525;41.240;16.500;2023-11-19T07:39:52;101901.06;;;30.17;26.88
35419;BME280;21525;41.240;16.500;2023-11-19T07:42:18;101902.72;;;30.53;26.67
35419;BME280;21525;41.240;16.500;2023-11-19T07:44:44;101907.03;;;30.66;26.20
35419;BME280;21525;41.240;16.500;2023-11-19T07:47:10;101909.78;;;32.07;25.14
35419;BME280;21525;41.240;16.500;2023-11-19T07:49:35;101904.44;;;30.98;25.74
35419;BME280;21525;41.240;16.500;2023-11-19T07:52:01;101907.97;;;30.88;25.62
35419;BME280;21525;41.240;16.500;2023-11-19T07:54:29;101914.34;;;31.75;24.98
35419;BME280;21525;41.240;16.500;2023-11-19T07:56:54;101919.13;;;30.83;25.91
35419;BME280;21525;41.240;16.500;2023-11-19T07:59:21;101919.44;;;31.34;25.18
35419;BME280;21525;41.240;16.500;2023-11-19T08:01:47;101919.59;;;30.88;25.60
35419;BME280;21525;41.240;16.500;2023-11-19T08:04:13;101911.28;;;31.25;25.33
35419;BME280;21525;41.240;16.500;2023-11-19T08:06:39;101905.53;;;31.07;25.59
35419;BME280;21525;41.240;16.500;2023-11-19T08:09:05;101907.34;;;30.39;26.24
35419;BME280;21525;41.240;16.500;2023-11-19T08:11:32;101911.91;;;29.91;27.45
35419;BME280;21525;41.240;16.500;2023-11-19T08:13:59;101923.81;;;29.39;37.22
35419;BME280;21525;41.240;16.500;2023-11-19T08:16:25;101916.78;;;28.89;27.59
35419;BME280;21525;41.240;16.500;2023-11-19T08:18:50;101915.34;;;28.33;32.70
35419;BME280;21525;41.240;16.500;2023-11-19T08:21:16;101916.22;;;28.21;29.30
35419;BME280;21525;41.240;16.500;2023-11-19T08:23:42;101922.00;;;28.40;39.53
35419;BME280;21525;41.240;16.500;2023-11-19T08:26:08;101910.13;;;28.31;35.40
35419;BME280;21525;41.240;16.500;2023-11-19T08:28:34;101913.13;;;28.52;93.34
35419;BME280;21525;41.240;16.500;2023-11-19T08:31:00;101921.94;;;28.15;74.12
35419;BME280;21525;41.240;16.500;2023-11-19T08:33:26;101917.06;;;27.94;37.09
35419;BME280;21525;41.240;16.500;2023-11-19T08:35:52;101906.09;;;27.72;31.71
35419;BME280;21525;41.240;16.500;2023-11-19T08:38:18;101909.19;;;28.05;30.26
35419;BME280;21525;41.240;16.500;2023-11-19T08:40:44;101906.22;;;28.10;31.72
35419;BME280;21525;41.240;16.500;2023-11-19T08:43:10;101903.44;;;28.12;31.36
35419;BME280;21525;41.240;16.500;2023-11-19T08:45:36;101911.63;;;27.96;33.40
35419;BME280;21525;41.240;16.500;2023-11-19T08:48:01;101916.47;;;28.03;35.78
35419;BME280;21525;41.240;16.500;2023-11-19T08:50:27;101917.41;;;28.02;32.07
35419;BME280;21525;41.240;16.500;2023-11-19T08:52:53;101919.09;;;28.30;42.06
35419;BME280;21525;41.240;16.500;2023-11-19T08:55:19;101912.63;;;28.07;31.64
35419;BME280;21525;41.240;16.500;2023-11-19T08:57:45;101909.47;;;28.28;37.27
35419;BME280;21525;41.240;16.500;2023-11-19T09:00:11;101911.16;;;28.16;41.14
35419;BME280;21525;41.240;16.500;2023-11-19T09:02:39;101912.00;;;27.77;31.93
35419;BME280;21525;41.240;16.500;2023-11-19T09:05:06;101914.97;;;27.72;41.78
35419;BME280;21525;41.240;16.500;2023-11-19T09:07:33;101919.53;;;28.24;35.33
35419;BME280;21525;41.240;16.500;2023-11-19T09:09:59;101906.81;;;28.40;31.26
35419;BME280;21525;41.240;16.500;2023-11-19T09:12:24;101911.53;;;28.24;30.81
35419;BME280;21525;41.240;16.500;2023-11-19T09:14:50;101914.00;;;27.61;31.53
35419;BME280;21525;41.240;16.500;2023-11-19T09:17:16;101904.00;;;27.77;30.97
35419;BME280;21525;41.240;16.500;2023-11-19T09:19:43;101893.91;;;28.07;30.73
35419;BME280;21525;41.240;16.500;2023-11-19T09:22:09;101889.31;;;28.09;30.84
35419;BME280;21525;41.240;16.500;2023-11-19T09:24:34;101882.44;;;27.39;30.31
35419;BME280;21525;41.240;16.500;2023-11-19T09:27:00;101892.53;;;27.75;30.31
35419;BME280;21525;41.240;16.500;2023-11-19T09:29:26;101887.16;;;28.02;30.20
35419;BME280;21525;41.240;16.500;2023-11-19T09:31:51;101884.78;;;27.97;30.00
35419;BME280;21525;41.240;16.500;2023-11-19T09:34:17;101892.78;;;28.24;29.79
35419;BME280;21525;41.240;16.500;2023-11-19T09:36:43;101897.91;;;28.27;29.41
35419;BME280;21525;41.240;16.500;2023-11-19T09:39:11;101902.19;;;28.30;30.36
35419;BME280;21525;41.240;16.500;2023-11-19T09:41:36;101888.97;;;27.62;32.62
35419;BME280;21525;41.240;16.500;2023-11-19T09:44:02;101889.31;;;27.70;33.07
35419;BME280;21525;41.240;16.500;2023-11-19T09:46:29;101892.44;;;28.29;34.43
35419;BME280;21525;41.240;16.500;2023-11-19T09:48:56;101882.84;;;28.26;31.23
35419;BME280;21525;41.240;16.500;2023-11-19T09:51:24;101881.00;;;28.27;30.55
35419;BME280;21525;41.240;16.500;2023-11-19T09:53:50;101880.63;;;27.93;30.99
35419;BME280;21525;41.240;16.500;2023-11-19T09:56:17;101891.84;;;27.98;30.81
35419;BME280;21525;41.240;16.500;2023-11-19T09:58:44;101896.16;;;28.14;30.92
35419;BME280;21525;41.240;16.500;2023-11-19T10:01:10;101895.13;;;28.29;30.49
35419;BME280;21525;41.240;16.500;2023-11-19T10:03:39;101898.25;;;28.23;30.40
35419;BME280;21525;41.240;16.500;2023-11-19T10:06:09;101906.34;;;26.85;31.91
35419;BME280;21525;41.240;16.500;2023-11-19T10:08:37;101897.13;;;26.18;33.49
35419;BME280;21525;41.240;16.500;2023-11-19T10:11:06;101889.50;;;25.51;33.23
35419;BME280;21525;41.240;16.500;2023-11-19T10:13:36;101883.59;;;25.14;35.99
35419;BME280;21525;41.240;16.500;2023-11-19T10:16:29;101871.84;;;25.65;33.80
35419;BME280;21525;41.240;16.500;2023-11-19T10:18:58;101869.94;;;25.04;33.88
35419;BME280;21525;41.240;16.500;2023-11-19T10:21:24;101871.16;;;25.30;34.31
35419;BME280;21525;41.240;16.500;2023-11-19T10:23:56;101865.09;;;25.58;33.87
35419;BME280;21525;41.240;16.500;2023-11-19T10:26:26;101869.09;;;26.11;33.12
35419;BME280;21525;41.240;16.500;2023-11-19T10:28:52;101862.69;;;25.69;32.53
35419;BME280;21525;41.240;16.500;2023-11-19T10:31:20;101867.53;;;25.31;33.08
35419;BME280;21525;41.240;16.500;2023-11-19T10:33:52;101861.31;;;26.22;32.91
35419;BME280;21525;41.240;16.500;2023-11-19T10:36:18;101848.94;;;26.21;32.85
35419;BME280;21525;41.240;16.500;2023-11-19T10:38:55;101839.31;;;26.90;32.70
35419;BME280;21525;41.240;16.500;2023-11-19T10:41:29;101834.72;;;27.20;33.14
35419;BME280;21525;41.240;16.500;2023-11-19T10:43:56;101836.50;;;27.47;44.10
35419;BME280;21525;41.240;16.500;2023-11-19T10:46:22;101825.41;;;26.99;33.04
35419;BME280;21525;41.240;16.500;2023-11-19T10:48:49;101826.22;;;27.14;31.93
35419;BME280;21525;41.240;16.500;2023-11-19T10:51:19;101833.09;;;25.28;34.38
35419;BME280;21525;41.240;16.500;2023-11-19T10:53:49;101839.69;;;23.55;36.79
35419;BME280;21525;41.240;16.500;2023-11-19T10:56:20;101824.47;;;24.27;36.12
35419;BME280;21525;41.240;16.500;2023-11-19T10:58:51;101829.63;;;24.30;36.06
35419;BME280;21525;41.240;16.500;2023-11-19T11:01:19;101813.75;;;24.93;35.78
35419;BME280;21525;41.240;16.500;2023-11-19T11:03:50;101819.25;;;24.41;37.13
35419;BME280;21525;41.240;16.500;2023-11-19T11:06:17;101816.34;;;23.96;36.72
35419;BME280;21525;41.240;16.500;2023-11-19T11:08:44;101812.44;;;23.50;37.02
35419;BME280;21525;41.240;16.500;2023-11-19T11:11:13;101809.94;;;23.29;38.13
35419;BME280;21525;41.240;16.500;2023-11-19T11:13:43;101794.47;;;24.41;39.73
35419;BME280;21525;41.240;16.500;2023-11-19T11:16:09;101797.03;;;25.07;36.13
35419;BME280;21525;41.240;16.500;2023-11-19T11:18:36;101781.81;;;25.09;35.63
35419;BME280;21525;41.240;16.500;2023-11-19T11:21:05;101787.09;;;26.00;34.73
35419;BME280;21525;41.240;16.500;2023-11-19T11:26:35;101794.88;;;23.66;36.80
35419;BME280;21525;41.240;16.500;2023-11-19T11:29:26;101802.72;;;24.36;36.51
35419;BME280;21525;41.240;16.500;2023-11-19T11:37:44;101804.63;;;23.46;38.67
35419;BME280;21525;41.240;16.500;2023-11-19T11:40:17;101796.84;;;24.12;51.55
35419;BME280;21525;41.240;16.500;2023-11-19T11:42:44;101781.81;;;25.25;36.37
35419;BME280;21525;41.240;16.500;2023-11-19T11:45:14;101769.72;;;25.65;35.79
35419;BME280;21525;41.240;16.500;2023-11-19T11:50:12;101770.03;;;24.50;36.49
35419;BME280;21525;41.240;16.500;2023-11-19T11:55:35;101762.97;;;24.00;38.00
35419;BME280;21525;41.240;16.500;2023-11-19T11:58:08;101759.16;;;24.55;37.19
35419;BME280;21525;41.240;16.500;2023-11-19T12:00:38;101754.91;;;23.85;37.37
35419;BME280;21525;41.240;16.500;2023-11-19T12:03:06;101755.94;;;23.82;40.69
35419;BME280;21525;41.240;16.500;2023-11-19T12:05:33;101761.66;;;22.85;39.68
35419;BME280;21525;41.240;16.500;2023-11-19T12:08:03;101756.00;;;23.81;37.84
35419;BME280;21525;41.240;16.500;2023-11-19T12:10:31;101756.50;;;24.04;38.61
35419;BME280;21525;41.240;16.500;2023-11-19T12:13:01;101753.47;;;23.26;39.65
35419;BME280;21525;41.240;16.500;2023-11-19T12:15:27;101752.47;;;22.73;40.53
35419;BME280;21525;41.240;16.500;2023-11-19T12:17:54;101748.13;;;23.08;42.80
35419;BME280;21525;41.240;16.500;2023-11-19T12:20:25;101745.59;;;22.69;41.89
35419;BME280;21525;41.240;16.500;2023-11-19T12:22:52;101734.19;;;23.39;42.63
35419;BME280;21525;41.240;16.500;2023-11-19T12:25:19;101739.06;;;22.95;40.29
35419;BME280;21525;41.240;16.500;2023-11-19T12:27:52;101745.94;;;22.24;40.82
35419;BME280;21525;41.240;16.500;2023-11-19T12:30:23;101735.81;;;21.93;43.21
35419;BME280;21525;41.240;16.500;2023-11-19T12:32:53;101739.13;;;21.78;42.32
35419;BME280;21525;41.240;16.500;2023-11-19T12:35:19;101733.81;;;22.94;40.28
35419;BME280;21525;41.240;16.500;2023-11-19T12:37:46;101724.09;;;23.65;38.67
35419;BME280;21525;41.240;16.500;2023-11-19T12:40:20;101732.63;;;23.87;37.72
35419;BME280;21525;41.240;16.500;2023-11-19T12:42:51;101733.69;;;22.97;38.42
35419;BME280;21525;41.240;16.500;2023-11-19T12:45:17;101732.44;;;23.57;38.47
35419;BME280;21525;41.240;16.500;2023-11-19T12:47:44;101733.13;;;24.11;37.17
35419;BME280;21525;41.240;16.500;2023-11-19T12:50:12;101736.94;;;23.72;37.19
35419;BME280;21525;41.240;16.500;2023-11-19T12:52:38;101733.50;;;23.36;37.97
35419;BME280;21525;41.240;16.500;2023-11-19T12:55:05;101724.22;;;23.27;38.64